Time;durP1;ratioP1;P1;durP2;ratioP2;P2;SDS_P1;SDS_P2;PMS_P1;PMS_P2;Temp;Humidity;BMP_temperature;BMP_pressure;BME280_temperature;BME280_humidity;BME280_pressure;Samples;Min_cycle;Max_cycle;Signal;HPM_P1;HPM_P2
2023/01/20 00:02:21;;;;;;;44.33;19.90;;;;;;;;;;5026847;28;20036;-69
2023/01/20 00:04:47;;;;;;;44.65;16.98;;;;;;;;;;5030914;28;20108;-69
2023/01/20 00:07:12;;;;;;;46.15;18.73;;;;;;;;;;5030050;28;20094;-69
2023/01/20 00:09:37;;;;;;;39.55;17.65;;;;;;;;;;5029573;28;20559;-70
2023/01/20 00:12:02;;;;;;;42.17;18.98;;;;;;;;;;5028497;28;20037;-71
2023/01/20 00:14:28;;;;;;;44.28;19.70;;;;;;;;;;5029033;28;20031;-69
2023/01/20 00:16:56;;;;;;;46.85;19.15;;;;;;;;;;5033745;28;20021;-69
2023/01/20 00:19:21;;;;;;;45.63;18.33;;;;;;;;;;5011363;28;20061;-71
2023/01/20 00:21:46;;;;;;;46.00;17.73;;;;;;;;;;5032304;28;20137;-71
2023/01/20 00:24:11;;;;;;;47.45;18.67;;;;;;;;;;5028809;28;20021;-69
2023/01/20 00:26:37;;;;;;;47.03;18.63;;;;;;;;;;5026907;28;20022;-69
2023/01/20 00:29:02;;;;;;;47.08;17.05;;;;;;;;;;5028601;28;20025;-70
2023/01/20 00:31:28;;;;;;;44.33;17.60;;;;;;;;;;5025754;28;20108;-71
2023/01/20 00:33:54;;;;;;;38.05;16.92;;;;;;;;;;5032403;28;20028;-69
2023/01/20 00:36:21;;;;;;;43.53;17.90;;;;;;;;;;5028255;28;20091;-69
2023/01/20 00:38:46;;;;;;;42.20;17.75;;;;;;;;;;5027448;28;20017;-69
2023/01/20 00:41:11;;;;;;;49.47;18.67;;;;;;;;;;5028334;28;20036;-69
2023/01/20 00:43:36;;;;;;;39.03;17.95;;;;;;;;;;5023262;28;20482;-70
2023/01/20 00:46:02;;;;;;;43.13;18.80;;;;;;;;;;5025924;28;20020;-71
2023/01/20 00:48:27;;;;;;;40.65;17.20;;;;;;;;;;5008766;28;20528;-71
2023/01/20 00:50:52;;;;;;;46.40;19.02;;;;;;;;;;5032227;28;20047;-69
2023/01/20 00:53:18;;;;;;;46.23;18.07;;;;;;;;;;5034876;28;20108;-69
2023/01/20 00:55:43;;;;;;;33.42;17.23;;;;;;;;;;5030314;28;20337;-69
2023/01/20 00:58:08;;;;;;;40.15;17.13;;;;;;;;;;5037518;28;20021;-69
2023/01/20 01:00:33;;;;;;;36.88;17.00;;;;;;;;;;5033612;28;20025;-69
2023/01/20 01:02:59;;;;;;;45.30;16.88;;;;;;;;;;5032520;28;20063;-69
2023/01/20 01:05:24;;;;;;;44.25;17.10;;;;;;;;;;5035876;28;20470;-69
2023/01/20 01:07:49;;;;;;;38.45;16.02;;;;;;;;;;5035066;28;20163;-70
2023/01/20 01:10:14;;;;;;;37.40;16.02;;;;;;;;;;5030942;28;20394;-71
2023/01/20 01:12:39;;;;;;;37.17;17.40;;;;;;;;;;5034224;28;20517;-71
2023/01/20 01:15:05;;;;;;;40.60;17.73;;;;;;;;;;5032508;28;20025;-70
2023/01/20 01:17:30;;;;;;;35.35;15.90;;;;;;;;;;5032397;28;20052;-70
2023/01/20 01:19:55;;;;;;;43.07;16.53;;;;;;;;;;5031656;28;20103;-70
2023/01/20 01:22:21;;;;;;;45.23;17.80;;;;;;;;;;5030992;28;20276;-69
2023/01/20 01:24:46;;;;;;;36.10;16.13;;;;;;;;;;5028626;28;20319;-69
2023/01/20 01:27:11;;;;;;;40.30;17.10;;;;;;;;;;5030142;28;20448;-71
2023/01/20 01:29:36;;;;;;;42.42;17.42;;;;;;;;;;5035616;28;20028;-70
2023/01/20 01:32:02;;;;;;;37.13;15.15;;;;;;;;;;5029280;28;20017;-69
2023/01/20 01:34:27;;;;;;;38.20;15.63;;;;;;;;;;5035267;28;20059;-71
2023/01/20 01:36:52;;;;;;;46.42;17.13;;;;;;;;;;5033947;28;20041;-69
2023/01/20 01:39:18;;;;;;;41.90;16.75;;;;;;;;;;5036085;28;20025;-69
2023/01/20 01:41:43;;;;;;;39.60;15.07;;;;;;;;;;5029575;28;20024;-69
2023/01/20 01:44:10;;;;;;;41.95;16.60;;;;;;;;;;5030310;28;20279;-69
2023/01/20 01:46:35;;;;;;;43.28;17.13;;;;;;;;;;5033296;28;20526;-70
2023/01/20 01:49:13;;;;;;;41.80;16.13;;;;;;;;;;5030388;28;20100;-69
2023/01/20 01:51:41;;;;;;;43.83;16.25;;;;;;;;;;5030156;28;20017;-70
2023/01/20 01:54:11;;;;;;;41.10;15.75;;;;;;;;;;5029670;28;20450;-69
2023/01/20 01:56:37;;;;;;;46.38;15.85;;;;;;;;;;5027922;28;20127;-69
2023/01/20 01:59:03;;;;;;;43.38;17.23;;;;;;;;;;5027246;28;20116;-71
2023/01/20 02:01:29;;;;;;;33.38;14.63;;;;;;;;;;5015841;28;20083;-70
2023/01/20 02:03:54;;;;;;;34.75;14.73;;;;;;;;;;5028731;28;20053;-69
2023/01/20 02:06:21;;;;;;;41.00;17.83;;;;;;;;;;5027255;28;20028;-69
2023/01/20 02:08:46;;;;;;;44.63;16.83;;;;;;;;;;5027651;28;20363;-69
2023/01/20 02:11:12;;;;;;;34.92;16.23;;;;;;;;;;5029073;28;20108;-70
2023/01/20 02:13:37;;;;;;;30.63;14.00;;;;;;;;;;5030080;28;20449;-70
2023/01/20 02:16:03;;;;;;;48.75;16.80;;;;;;;;;;5031251;28;20064;-70
2023/01/20 02:18:40;;;;;;;42.63;17.70;;;;;;;;;;5034630;28;20101;-69
2023/01/20 02:21:23;;;;;;;50.05;16.17;;;;;;;;;;5034014;28;20437;-69
2023/01/20 02:23:57;;;;;;;53.15;17.20;;;;;;;;;;5030986;28;20104;-69
2023/01/20 02:26:22;;;;;;;40.10;17.90;;;;;;;;;;5034717;28;20469;-69
2023/01/20 02:28:50;;;;;;;48.55;18.52;;;;;;;;;;5033774;28;20025;-69
2023/01/20 02:31:22;;;;;;;45.92;16.63;;;;;;;;;;5029609;28;20029;-69
2023/01/20 02:33:55;;;;;;;45.72;17.67;;;;;;;;;;5031631;28;20413;-70
2023/01/20 02:36:25;;;;;;;37.53;16.50;;;;;;;;;;5011824;28;20103;-70
2023/01/20 02:39:00;;;;;;;45.65;16.77;;;;;;;;;;5035065;28;20025;-70
2023/01/20 02:41:38;;;;;;;36.10;15.25;;;;;;;;;;5031666;28;20026;-70
2023/01/20 02:44:03;;;;;;;44.70;15.90;;;;;;;;;;5033206;28;20041;-70
2023/01/20 02:46:30;;;;;;;40.00;15.53;;;;;;;;;;5029890;28;20051;-71
2023/01/20 02:48:58;;;;;;;47.33;17.27;;;;;;;;;;5032425;28;20264;-70
2023/01/20 02:51:30;;;;;;;38.50;17.08;;;;;;;;;;5031056;28;20105;-69
2023/01/20 02:53:58;;;;;;;40.08;16.00;;;;;;;;;;5029082;28;20017;-69
2023/01/20 02:56:25;;;;;;;36.40;15.90;;;;;;;;;;5028246;28;20022;-70
2023/01/20 02:58:59;;;;;;;35.67;15.43;;;;;;;;;;5033332;28;20078;-69
2023/01/20 03:01:30;;;;;;;44.15;17.10;;;;;;;;;;5031804;28;20017;-69
2023/01/20 03:03:57;;;;;;;38.05;16.50;;;;;;;;;;5032326;28;20025;-70
2023/01/20 03:06:24;;;;;;;41.75;16.70;;;;;;;;;;5032428;28;20018;-69
2023/01/20 03:08:51;;;;;;;44.65;16.50;;;;;;;;;;5029347;28;20112;-69
2023/01/20 03:11:16;;;;;;;31.08;15.10;;;;;;;;;;5028602;28;20021;-70
2023/01/20 03:13:44;;;;;;;37.75;15.63;;;;;;;;;;5032339;28;20379;-70
2023/01/20 03:16:14;;;;;;;41.25;15.80;;;;;;;;;;5032075;28;20029;-69
2023/01/20 03:18:40;;;;;;;37.50;16.17;;;;;;;;;;5037497;28;20014;-69
2023/01/20 03:21:06;;;;;;;36.25;16.17;;;;;;;;;;5032961;28;20029;-69
2023/01/20 03:23:33;;;;;;;37.03;16.45;;;;;;;;;;5033396;28;20112;-69
2023/01/20 03:25:59;;;;;;;39.00;16.48;;;;;;;;;;5028469;28;20052;-69
2023/01/20 03:28:24;;;;;;;46.08;15.10;;;;;;;;;;5029064;28;20268;-70
2023/01/20 03:30:50;;;;;;;50.63;16.52;;;;;;;;;;5032045;28;20045;-69
2023/01/20 03:33:16;;;;;;;44.38;15.88;;;;;;;;;;5025330;28;21536;-71
2023/01/20 03:35:41;;;;;;;40.00;16.70;;;;;;;;;;5033533;28;20025;-70
2023/01/20 03:38:07;;;;;;;50.95;16.75;;;;;;;;;;5029062;28;20025;-69
2023/01/20 03:40:36;;;;;;;44.55;17.15;;;;;;;;;;5030763;28;20021;-69
2023/01/20 03:43:08;;;;;;;39.88;17.33;;;;;;;;;;5028621;28;20020;-69
2023/01/20 03:45:41;;;;;;;37.50;15.07;;;;;;;;;;5024672;28;20017;-69
2023/01/20 03:48:09;;;;;;;36.75;13.98;;;;;;;;;;5024824;28;20158;-69
2023/01/20 03:50:55;;;;;;;44.95;15.80;;;;;;;;;;5036973;28;20098;-69
2023/01/20 03:53:34;;;;;;;48.97;19.02;;;;;;;;;;5024881;28;20048;-69
2023/01/20 03:56:06;;;;;;;47.05;17.00;;;;;;;;;;5026134;28;20040;-70
2023/01/20 03:58:33;;;;;;;32.75;14.65;;;;;;;;;;5028749;28;20083;-69
2023/01/20 04:01:02;;;;;;;35.53;13.80;;;;;;;;;;5026247;28;20071;-70
2023/01/20 04:03:28;;;;;;;36.83;15.27;;;;;;;;;;5030204;28;20374;-70
2023/01/20 04:05:55;;;;;;;37.58;15.48;;;;;;;;;;5023306;28;20038;-70
2023/01/20 04:08:44;;;;;;;39.75;16.02;;;;;;;;;;5003127;28;20107;-71
2023/01/20 04:11:09;;;;;;;40.03;16.40;;;;;;;;;;5024792;28;20028;-70
2023/01/20 04:13:35;;;;;;;42.70;14.98;;;;;;;;;;5025749;28;20025;-69
2023/01/20 04:16:00;;;;;;;35.08;15.48;;;;;;;;;;5035826;28;20017;-69
2023/01/20 04:18:26;;;;;;;36.55;14.48;;;;;;;;;;5033379;28;20508;-69
2023/01/20 04:21:00;;;;;;;42.80;14.95;;;;;;;;;;5027778;28;20473;-69
2023/01/20 04:23:31;;;;;;;36.20;15.65;;;;;;;;;;5010993;28;20514;-69
2023/01/20 04:25:56;;;;;;;41.42;15.98;;;;;;;;;;5027815;28;20024;-72
2023/01/20 04:28:21;;;;;;;37.88;14.73;;;;;;;;;;5029124;28;20021;-70
2023/01/20 04:30:47;;;;;;;32.70;13.82;;;;;;;;;;5028660;28;20013;-70
2023/01/20 04:33:12;;;;;;;39.63;14.93;;;;;;;;;;5027588;28;20033;-69
2023/01/20 04:35:37;;;;;;;41.22;14.25;;;;;;;;;;5028161;28;20482;-70
2023/01/20 04:38:02;;;;;;;42.35;17.17;;;;;;;;;;5024779;28;20091;-70
2023/01/20 04:40:28;;;;;;;31.58;11.93;;;;;;;;;;5027702;28;20144;-69
2023/01/20 04:42:53;;;;;;;31.52;13.35;;;;;;;;;;5030652;28;20385;-69
2023/01/20 04:45:18;;;;;;;33.13;13.07;;;;;;;;;;5026808;28;20311;-69
2023/01/20 04:47:43;;;;;;;31.38;11.45;;;;;;;;;;5025612;28;20020;-69
2023/01/20 04:50:09;;;;;;;35.85;15.75;;;;;;;;;;5028601;28;20018;-70
2023/01/20 04:52:34;;;;;;;40.80;14.43;;;;;;;;;;5026030;28;20072;-69
2023/01/20 04:54:59;;;;;;;32.90;13.50;;;;;;;;;;5028532;28;20014;-69
2023/01/20 04:57:25;;;;;;;41.55;14.48;;;;;;;;;;5031198;28;20024;-69
2023/01/20 04:59:50;;;;;;;38.05;11.35;;;;;;;;;;5033927;28;20051;-69
2023/01/20 05:02:15;;;;;;;29.50;12.95;;;;;;;;;;5023395;28;20518;-69
2023/01/20 05:04:40;;;;;;;36.50;14.98;;;;;;;;;;5024951;28;20096;-69
2023/01/20 05:07:06;;;;;;;36.70;15.48;;;;;;;;;;5028075;28;20316;-69
2023/01/20 05:09:31;;;;;;;40.97;15.35;;;;;;;;;;5027908;28;20536;-69
2023/01/20 05:11:56;;;;;;;39.47;14.85;;;;;;;;;;5029489;28;20214;-70
2023/01/20 05:14:21;;;;;;;33.33;14.10;;;;;;;;;;5031437;28;20478;-70
2023/01/20 05:16:46;;;;;;;37.08;14.13;;;;;;;;;;5029509;28;20478;-70
2023/01/20 05:19:12;;;;;;;35.83;14.20;;;;;;;;;;5007469;28;20117;-70
2023/01/20 05:21:37;;;;;;;31.80;13.80;;;;;;;;;;5026842;28;20022;-70
2023/01/20 05:24:03;;;;;;;41.05;14.68;;;;;;;;;;5032353;28;20064;-70
2023/01/20 05:26:28;;;;;;;35.13;11.45;;;;;;;;;;5024325;28;20462;-69
2023/01/20 05:28:53;;;;;;;35.60;13.88;;;;;;;;;;5009109;28;20056;-69
2023/01/20 05:31:18;;;;;;;38.05;13.55;;;;;;;;;;5014037;28;20021;-70
2023/01/20 05:33:43;;;;;;;35.25;12.65;;;;;;;;;;5025318;28;20033;-69
2023/01/20 05:36:09;;;;;;;35.55;13.77;;;;;;;;;;5025701;28;20022;-69
2023/01/20 05:38:35;;;;;;;39.15;14.95;;;;;;;;;;5039030;28;20025;-69
2023/01/20 05:41:01;;;;;;;40.92;14.13;;;;;;;;;;5031404;28;20029;-69
2023/01/20 05:43:26;;;;;;;51.95;15.95;;;;;;;;;;5039082;28;20021;-69
2023/01/20 05:45:51;;;;;;;34.53;11.63;;;;;;;;;;5031163;28;20044;-69
2023/01/20 05:48:16;;;;;;;28.73;8.15;;;;;;;;;;5041004;28;20692;-69
2023/01/20 05:50:42;;;;;;;23.33;9.18;;;;;;;;;;5033395;28;20422;-68
2023/01/20 05:53:07;;;;;;;38.17;14.32;;;;;;;;;;5037513;28;20029;-69
2023/01/20 05:55:32;;;;;;;24.30;10.68;;;;;;;;;;5024487;28;20510;-69
2023/01/20 05:58:00;;;;;;;42.00;12.60;;;;;;;;;;5032551;28;20032;-69
2023/01/20 06:00:25;;;;;;;30.42;12.50;;;;;;;;;;5033255;28;20398;-70
2023/01/20 06:02:50;;;;;;;29.65;10.38;;;;;;;;;;5035434;28;20021;-69
2023/01/20 06:05:15;;;;;;;17.43;8.63;;;;;;;;;;5029097;28;20021;-69
2023/01/20 06:07:40;;;;;;;33.15;14.73;;;;;;;;;;5026921;28;20807;-69
2023/01/20 06:10:07;;;;;;;40.50;13.68;;;;;;;;;;5027689;28;20036;-68
2023/01/20 06:12:32;;;;;;;15.32;5.20;;;;;;;;;;5030043;28;20045;-69
2023/01/20 06:14:57;;;;;;;33.47;12.23;;;;;;;;;;5028655;28;20311;-69
2023/01/20 06:17:23;;;;;;;18.58;6.78;;;;;;;;;;5026566;28;20022;-69
2023/01/20 06:19:48;;;;;;;22.40;7.10;;;;;;;;;;5028149;28;20378;-69
2023/01/20 06:22:18;;;;;;;29.15;12.85;;;;;;;;;;5024509;28;20383;-68
2023/01/20 06:24:43;;;;;;;19.77;6.45;;;;;;;;;;5027916;28;20045;-69
2023/01/20 06:27:09;;;;;;;26.63;11.07;;;;;;;;;;5031657;28;20111;-69
2023/01/20 06:29:34;;;;;;;18.33;8.05;;;;;;;;;;5033924;28;20025;-69
2023/01/20 06:31:59;;;;;;;18.65;8.30;;;;;;;;;;5032836;28;20318;-69
2023/01/20 06:34:24;;;;;;;15.40;5.22;;;;;;;;;;5026560;28;20061;-69
2023/01/20 06:36:49;;;;;;;22.98;10.13;;;;;;;;;;5028169;28;20355;-69
2023/01/20 06:39:15;;;;;;;27.08;10.50;;;;;;;;;;5026551;28;20029;-70
2023/01/20 06:41:40;;;;;;;22.58;8.82;;;;;;;;;;5025808;28;20466;-70
2023/01/20 06:44:05;;;;;;;23.60;8.80;;;;;;;;;;5027415;28;20116;-70
2023/01/20 06:46:30;;;;;;;19.25;6.38;;;;;;;;;;5027698;28;20280;-70
2023/01/20 06:48:59;;;;;;;21.00;9.90;;;;;;;;;;5027601;28;20021;-69
2023/01/20 06:51:25;;;;;;;12.65;5.22;;;;;;;;;;5028188;28;20155;-69
2023/01/20 06:53:50;;;;;;;26.80;9.95;;;;;;;;;;5021826;28;20031;-69
2023/01/20 06:56:16;;;;;;;17.10;7.88;;;;;;;;;;5028179;28;20021;-69
2023/01/20 06:58:41;;;;;;;19.70;6.82;;;;;;;;;;5025546;28;20039;-69
2023/01/20 07:01:07;;;;;;;18.65;8.10;;;;;;;;;;5011506;28;20033;-69
2023/01/20 07:03:33;;;;;;;19.58;8.85;;;;;;;;;;5025611;28;20490;-69
2023/01/20 07:05:59;;;;;;;10.45;4.47;;;;;;;;;;5025895;28;20132;-69
2023/01/20 07:08:24;;;;;;;19.48;6.72;;;;;;;;;;5055219;23;20049;-68
2023/01/20 07:10:49;;;;;;;20.23;8.35;;;;;;;;;;5034296;28;20029;-68
2023/01/20 07:13:15;;;;;;;15.35;6.35;;;;;;;;;;5030331;28;20429;-68
2023/01/20 07:15:40;;;;;;;20.25;7.38;;;;;;;;;;5030113;28;20048;-68
2023/01/20 07:18:05;;;;;;;15.23;6.07;;;;;;;;;;5029949;28;20056;-69
2023/01/20 07:20:30;;;;;;;36.07;9.87;;;;;;;;;;5031758;28;20056;-70
2023/01/20 07:22:58;;;;;;;27.80;9.30;;;;;;;;;;5045593;28;20263;-68
2023/01/20 07:25:23;;;;;;;24.13;10.00;;;;;;;;;;5046187;28;20276;-68
2023/01/20 07:27:48;;;;;;;22.15;7.65;;;;;;;;;;5045129;28;20036;-69
2023/01/20 07:30:13;;;;;;;26.20;9.60;;;;;;;;;;5049322;28;20028;-68
2023/01/20 07:32:39;;;;;;;23.05;9.25;;;;;;;;;;5050639;28;20115;-68
2023/01/20 07:35:04;;;;;;;28.02;8.98;;;;;;;;;;5045222;28;20021;-68
2023/01/20 07:37:29;;;;;;;20.90;8.65;;;;;;;;;;5043179;28;20033;-68
2023/01/20 07:39:54;;;;;;;13.10;5.22;;;;;;;;;;5047847;28;20020;-68
2023/01/20 07:42:20;;;;;;;17.52;7.00;;;;;;;;;;5046304;28;20032;-67
2023/01/20 07:44:45;;;;;;;30.55;10.20;;;;;;;;;;5030986;28;20040;-68
2023/01/20 07:47:10;;;;;;;15.63;5.65;;;;;;;;;;5047468;28;20032;-68
2023/01/20 07:49:35;;;;;;;13.32;7.07;;;;;;;;;;5047730;28;20021;-68
2023/01/20 07:52:00;;;;;;;18.77;8.17;;;;;;;;;;5040844;28;20029;-70
2023/01/20 07:54:26;;;;;;;32.90;8.20;;;;;;;;;;5045681;28;20937;-68
2023/01/20 07:56:51;;;;;;;17.52;7.50;;;;;;;;;;5040541;28;20020;-69
2023/01/20 07:59:16;;;;;;;19.02;8.20;;;;;;;;;;5044520;28;20588;-68
2023/01/20 08:01:41;;;;;;;21.02;8.43;;;;;;;;;;5045480;28;20033;-69
2023/01/20 08:04:07;;;;;;;8.60;4.07;;;;;;;;;;5045821;28;20013;-68
2023/01/20 08:06:32;;;;;;;23.77;8.45;;;;;;;;;;5046369;28;20063;-68
2023/01/20 08:09:01;;;;;;;19.15;7.00;;;;;;;;;;5045659;28;20032;-70
2023/01/20 08:11:26;;;;;;;11.18;5.35;;;;;;;;;;5045040;28;20561;-70
2023/01/20 08:13:51;;;;;;;26.65;6.85;;;;;;;;;;5045451;28;20127;-68
2023/01/20 08:16:17;;;;;;;15.32;5.68;;;;;;;;;;5041161;28;20057;-69
2023/01/20 08:18:42;;;;;;;20.90;7.68;;;;;;;;;;5045725;28;20886;-68
2023/01/20 08:21:16;;;;;;;18.60;8.18;;;;;;;;;;5044934;28;20469;-69
2023/01/20 08:23:41;;;;;;;14.40;6.47;;;;;;;;;;5046179;28;20025;-69
2023/01/20 08:26:06;;;;;;;12.13;5.03;;;;;;;;;;5044210;28;20151;-70
2023/01/20 08:28:33;;;;;;;15.13;7.53;;;;;;;;;;5045503;28;20267;-68
2023/01/20 08:31:02;;;;;;;25.42;6.55;;;;;;;;;;5042412;28;20480;-68
2023/01/20 08:33:27;;;;;;;18.90;8.75;;;;;;;;;;5044891;28;20045;-68
2023/01/20 08:35:54;;;;;;;22.27;9.23;;;;;;;;;;5047494;28;20025;-69
2023/01/20 08:38:19;;;;;;;18.85;7.68;;;;;;;;;;5046058;28;20286;-68
2023/01/20 08:40:45;;;;;;;18.42;6.60;;;;;;;;;;5046529;28;20021;-68
2023/01/20 08:43:10;;;;;;;19.35;7.82;;;;;;;;;;5044316;28;20060;-70
2023/01/20 08:45:35;;;;;;;10.77;5.70;;;;;;;;;;5044568;28;20497;-68
2023/01/20 08:48:00;;;;;;;16.60;8.10;;;;;;;;;;5046403;28;20075;-69
2023/01/20 08:50:25;;;;;;;13.33;5.77;;;;;;;;;;5045454;28;20493;-68
2023/01/20 08:52:51;;;;;;;11.93;5.30;;;;;;;;;;5046485;28;20267;-68
2023/01/20 08:55:16;;;;;;;14.30;5.45;;;;;;;;;;5045072;28;20389;-68
2023/01/20 08:57:41;;;;;;;13.15;5.65;;;;;;;;;;5048321;28;20167;-69
2023/01/20 09:00:08;;;;;;;17.52;7.68;;;;;;;;;;5044199;28;20044;-68
2023/01/20 09:02:33;;;;;;;19.05;7.85;;;;;;;;;;5045589;28;20019;-68
2023/01/20 09:04:58;;;;;;;21.95;7.38;;;;;;;;;;5045826;28;20017;-68
2023/01/20 09:07:23;;;;;;;11.48;4.10;;;;;;;;;;5046701;28;20060;-69
2023/01/20 09:09:48;;;;;;;23.08;7.78;;;;;;;;;;5047227;28;20033;-70
2023/01/20 09:12:13;;;;;;;13.57;4.35;;;;;;;;;;5044397;28;20392;-70
2023/01/20 09:14:39;;;;;;;22.00;7.70;;;;;;;;;;5042975;28;20556;-69
2023/01/20 09:17:04;;;;;;;9.82;4.22;;;;;;;;;;5047476;28;20067;-70
2023/01/20 09:19:29;;;;;;;10.98;3.33;;;;;;;;;;5051087;28;20043;-68
2023/01/20 09:21:54;;;;;;;20.05;7.10;;;;;;;;;;5051186;28;20025;-68
2023/01/20 09:24:20;;;;;;;12.43;4.97;;;;;;;;;;5052046;28;20104;-68
2023/01/20 09:26:46;;;;;;;7.32;3.90;;;;;;;;;;5049586;28;20057;-70
2023/01/20 09:29:12;;;;;;;18.48;7.57;;;;;;;;;;5046794;28;20022;-68
2023/01/20 09:31:39;;;;;;;13.02;4.75;;;;;;;;;;5046082;28;20044;-69
2023/01/20 09:34:04;;;;;;;16.23;6.53;;;;;;;;;;5048943;28;20021;-69
2023/01/20 09:36:29;;;;;;;14.75;6.07;;;;;;;;;;5046265;28;20101;-68
2023/01/20 09:44:43;;;;;;;20.85;7.30;;;;;;;;;;5048099;28;20103;-68
2023/01/20 09:47:20;;;;;;;7.05;2.88;;;;;;;;;;5042490;28;20031;-68
2023/01/20 09:53:01;;;;;;;8.80;3.60;;;;;;;;;;5045357;28;20075;-68
2023/01/20 09:55:29;;;;;;;14.65;5.15;;;;;;;;;;5048293;28;20033;-68
2023/01/20 09:58:15;;;;;;;13.95;7.03;;;;;;;;;;5048180;28;20021;-69
2023/01/20 10:00:43;;;;;;;18.45;7.78;;;;;;;;;;5042182;28;20083;-68
2023/01/20 10:03:13;;;;;;;11.48;5.10;;;;;;;;;;5046329;28;20425;-68
2023/01/20 10:05:40;;;;;;;18.30;6.88;;;;;;;;;;5043188;28;20032;-69
2023/01/20 10:08:12;;;;;;;19.67;6.93;;;;;;;;;;5047655;28;20022;-68
2023/01/20 10:10:42;;;;;;;20.50;8.38;;;;;;;;;;5047957;28;20025;-68
2023/01/20 10:13:18;;;;;;;7.90;4.45;;;;;;;;;;5041509;28;20032;-68
2023/01/20 10:15:45;;;;;;;16.23;6.28;;;;;;;;;;5050106;28;20149;-69
2023/01/20 10:18:16;;;;;;;15.05;6.63;;;;;;;;;;5046170;28;20021;-69
2023/01/20 10:20:45;;;;;;;10.35;4.22;;;;;;;;;;5047438;28;20026;-68
2023/01/20 10:23:20;;;;;;;8.38;3.13;;;;;;;;;;5051216;28;20025;-71
2023/01/20 10:25:47;;;;;;;12.05;5.93;;;;;;;;;;5048171;28;20039;-68
2023/01/20 10:28:21;;;;;;;19.90;7.55;;;;;;;;;;5051976;28;20125;-71
2023/01/20 10:30:46;;;;;;;22.52;6.93;;;;;;;;;;5045978;28;20068;-69
2023/01/20 10:33:13;;;;;;;10.02;4.25;;;;;;;;;;5046824;28;20478;-68
2023/01/20 10:35:43;;;;;;;12.13;5.30;;;;;;;;;;5045809;28;20021;-71
2023/01/20 10:38:18;;;;;;;8.63;4.10;;;;;;;;;;5042398;28;20385;-68
2023/01/20 10:40:50;;;;;;;15.50;7.32;;;;;;;;;;5042607;28;20460;-69
2023/01/20 10:43:16;;;;;;;11.50;4.05;;;;;;;;;;5046349;28;20449;-68
2023/01/20 10:45:44;;;;;;;10.88;4.85;;;;;;;;;;5042986;28;20420;-68
2023/01/20 10:48:45;;;;;;;11.75;5.20;;;;;;;;;;5045745;28;20074;-68
2023/01/20 10:51:10;;;;;;;10.75;4.22;;;;;;;;;;4949975;28;20039;-67
2023/01/20 10:53:43;;;;;;;14.02;5.45;;;;;;;;;;5024108;28;20390;-69
2023/01/20 10:56:08;;;;;;;11.75;4.40;;;;;;;;;;5046817;28;20659;-68
2023/01/20 10:58:37;;;;;;;10.13;4.50;;;;;;;;;;5042269;28;20473;-69
2023/01/20 11:01:04;;;;;;;7.53;4.10;;;;;;;;;;5044040;28;20659;-67
2023/01/20 11:03:32;;;;;;;6.85;3.80;;;;;;;;;;5040647;28;20116;-68
2023/01/20 11:05:59;;;;;;;11.52;5.38;;;;;;;;;;5049582;28;20020;-68
2023/01/20 11:08:27;;;;;;;4.93;2.65;;;;;;;;;;5047588;28;20033;-69
2023/01/20 11:10:55;;;;;;;14.13;7.10;;;;;;;;;;5048012;28;20021;-68
2023/01/20 11:13:20;;;;;;;10.38;5.28;;;;;;;;;;5044751;28;20028;-68
2023/01/20 11:15:47;;;;;;;27.05;6.85;;;;;;;;;;5045539;28;20028;-71
2023/01/20 11:18:12;;;;;;;14.85;5.63;;;;;;;;;;5048672;28;20029;-68
2023/01/20 11:20:41;;;;;;;6.80;3.53;;;;;;;;;;5046488;28;20385;-68
2023/01/20 11:23:17;;;;;;;7.00;3.22;;;;;;;;;;5046464;28;20263;-68
2023/01/20 11:25:51;;;;;;;10.65;4.38;;;;;;;;;;5047103;28;20075;-68
2023/01/20 11:28:17;;;;;;;15.35;6.82;;;;;;;;;;5042121;28;20024;-68
2023/01/20 11:30:48;;;;;;;7.85;3.05;;;;;;;;;;5044666;28;20024;-68
2023/01/20 11:33:21;;;;;;;7.63;3.95;;;;;;;;;;5045589;28;20021;-69
2023/01/20 11:36:03;;;;;;;10.88;4.32;;;;;;;;;;5039626;28;20020;-68
2023/01/20 11:38:40;;;;;;;15.90;6.07;;;;;;;;;;5040507;28;20036;-70
2023/01/20 11:41:16;;;;;;;5.97;3.17;;;;;;;;;;5043851;28;20024;-68
2023/01/20 11:43:41;;;;;;;12.98;4.32;;;;;;;;;;5042359;28;20078;-69
2023/01/20 11:46:18;;;;;;;14.67;6.83;;;;;;;;;;5048194;28;20104;-69
2023/01/20 11:48:44;;;;;;;23.13;6.30;;;;;;;;;;5045371;28;21159;-68
2023/01/20 11:51:20;;;;;;;16.88;3.70;;;;;;;;;;5039762;28;20033;-68
2023/01/20 11:53:45;;;;;;;7.78;4.05;;;;;;;;;;5040983;28;20031;-69
2023/01/20 11:56:21;;;;;;;8.43;4.03;;;;;;;;;;5019954;28;20020;-68
2023/01/20 11:58:53;;;;;;;6.63;2.83;;;;;;;;;;5041068;28;20026;-68
2023/01/20 12:01:28;;;;;;;3.28;2.38;;;;;;;;;;5029031;28;20055;-68
2023/01/20 12:04:00;;;;;;;7.65;3.90;;;;;;;;;;5040323;28;20458;-69
2023/01/20 12:06:25;;;;;;;17.95;7.60;;;;;;;;;;5045432;28;20482;-70
2023/01/20 12:08:53;;;;;;;20.20;6.30;;;;;;;;;;5044818;28;20205;-68
2023/01/20 12:11:22;;;;;;;8.05;4.30;;;;;;;;;;5042281;28;20477;-68
2023/01/20 12:16:45;;;;;;;11.73;5.53;;;;;;;;;;5045297;28;20726;-68
2023/01/20 12:19:13;;;;;;;16.92;7.28;;;;;;;;;;5046438;28;20021;-69
2023/01/20 12:21:41;;;;;;;19.95;5.97;;;;;;;;;;5041608;28;20025;-69
2023/01/20 12:24:11;;;;;;;6.45;3.90;;;;;;;;;;5042296;28;20029;-71
2023/01/20 12:26:36;;;;;;;17.48;6.28;;;;;;;;;;5047590;28;20176;-69
2023/01/20 12:29:11;;;;;;;18.83;5.43;;;;;;;;;;5042660;28;20130;-69
2023/01/20 12:31:36;;;;;;;14.40;6.03;;;;;;;;;;5041826;28;20017;-70
2023/01/20 12:34:02;;;;;;;7.30;3.95;;;;;;;;;;5045124;28;20079;-71
2023/01/20 12:36:50;;;;;;;18.63;6.20;;;;;;;;;;5043953;28;20021;-68
2023/01/20 12:39:15;;;;;;;12.98;4.47;;;;;;;;;;5042230;28;20134;-69
2023/01/20 12:41:46;;;;;;;19.30;7.55;;;;;;;;;;5043901;28;20146;-67
2023/01/20 12:44:11;;;;;;;9.55;4.00;;;;;;;;;;5046125;28;20735;-69
2023/01/20 12:46:36;;;;;;;8.23;4.47;;;;;;;;;;5039407;28;20021;-67
2023/01/20 12:49:01;;;;;;;13.07;4.40;;;;;;;;;;5051952;28;20290;-70
2023/01/20 12:51:43;;;;;;;10.50;4.50;;;;;;;;;;5048793;28;20263;-69
2023/01/20 12:54:23;;;;;;;19.23;6.85;;;;;;;;;;5055028;28;20275;-67
2023/01/20 12:56:49;;;;;;;13.95;5.20;;;;;;;;;;5050968;28;20021;-68
2023/01/20 12:59:21;;;;;;;14.30;6.00;;;;;;;;;;5049857;28;20524;-67
2023/01/20 13:02:04;;;;;;;21.50;6.65;;;;;;;;;;5047959;28;20325;-67
2023/01/20 13:04:30;;;;;;;14.85;6.10;;;;;;;;;;5055705;28;20511;-69
2023/01/20 13:07:04;;;;;;;15.23;6.60;;;;;;;;;;5050961;28;20017;-67
2023/01/20 13:09:51;;;;;;;15.27;5.53;;;;;;;;;;5071834;22;20711;-70
2023/01/20 13:12:22;;;;;;;11.05;4.13;;;;;;;;;;5049351;28;20021;-70
2023/01/20 13:14:51;;;;;;;21.73;7.55;;;;;;;;;;5049833;28;20021;-69
2023/01/20 13:17:20;;;;;;;20.17;4.70;;;;;;;;;;5055224;28;20056;-69
2023/01/20 13:19:48;;;;;;;9.65;4.93;;;;;;;;;;5049267;28;20029;-69
2023/01/20 13:22:16;;;;;;;20.38;8.50;;;;;;;;;;5053836;28;20101;-69
2023/01/20 13:24:43;;;;;;;18.83;6.57;;;;;;;;;;5049849;28;20022;-69
2023/01/20 13:27:09;;;;;;;18.20;8.25;;;;;;;;;;5052924;28;20017;-69
2023/01/20 13:29:34;;;;;;;5.65;3.00;;;;;;;;;;5051731;28;20013;-69
2023/01/20 13:31:59;;;;;;;14.13;5.53;;;;;;;;;;5049872;28;20013;-69
2023/01/20 13:34:25;;;;;;;8.38;4.88;;;;;;;;;;5047319;28;20818;-69
2023/01/20 13:37:16;;;;;;;24.42;10.00;;;;;;;;;;5049860;28;20253;-70
2023/01/20 13:39:44;;;;;;;13.95;6.43;;;;;;;;;;5019929;28;20303;-70
2023/01/20 13:42:27;;;;;;;23.15;7.38;;;;;;;;;;5052231;28;20108;-70
2023/01/20 13:45:11;;;;;;;19.80;8.13;;;;;;;;;;5052197;28;20473;-70
2023/01/20 13:47:58;;;;;;;8.70;3.92;;;;;;;;;;5049153;28;20523;-70
2023/01/20 13:50:25;;;;;;;20.83;6.85;;;;;;;;;;5052873;28;20499;-70
2023/01/20 13:52:50;;;;;;;25.80;10.80;;;;;;;;;;5050034;28;20025;-70
2023/01/20 13:55:39;;;;;;;17.40;7.43;;;;;;;;;;5031697;28;20508;-69
2023/01/20 13:58:11;;;;;;;23.05;8.05;;;;;;;;;;5037222;28;20033;-69
2023/01/20 14:00:36;;;;;;;14.18;6.40;;;;;;;;;;5051252;28;20025;-70
2023/01/20 14:03:10;;;;;;;19.00;7.17;;;;;;;;;;5047388;28;20481;-70
2023/01/20 14:05:35;;;;;;;14.05;6.20;;;;;;;;;;5046146;28;20771;-70
2023/01/20 14:08:01;;;;;;;15.38;5.40;;;;;;;;;;5047549;28;20023;-70
2023/01/20 14:10:26;;;;;;;18.08;4.30;;;;;;;;;;5049354;28;20495;-70
2023/01/20 14:12:51;;;;;;;16.98;6.78;;;;;;;;;;5045414;28;20024;-70
2023/01/20 14:15:24;;;;;;;20.65;4.72;;;;;;;;;;5045148;28;20112;-69
2023/01/20 14:17:53;;;;;;;11.55;5.90;;;;;;;;;;5047534;28;20021;-68
2023/01/20 14:20:23;;;;;;;16.43;6.93;;;;;;;;;;5046869;28;20017;-69
2023/01/20 14:22:48;;;;;;;12.88;5.10;;;;;;;;;;5044733;28;20029;-68
2023/01/20 14:25:24;;;;;;;5.60;3.20;;;;;;;;;;5046009;28;20021;-68
2023/01/20 14:27:49;;;;;;;20.60;7.93;;;;;;;;;;5045873;28;20028;-69
2023/01/20 14:30:25;;;;;;;17.77;9.10;;;;;;;;;;5046963;28;20381;-68
2023/01/20 14:32:51;;;;;;;9.73;4.68;;;;;;;;;;5042679;28;20028;-68
2023/01/20 14:35:28;;;;;;;16.50;6.88;;;;;;;;;;5045635;28;20110;-69
2023/01/20 14:37:54;;;;;;;15.32;6.30;;;;;;;;;;5047728;28;20024;-68
2023/01/20 14:40:24;;;;;;;21.08;8.43;;;;;;;;;;5049201;28;20028;-68
2023/01/20 14:42:49;;;;;;;;;;;;;;;;;;5047790;28;20048;-68